KJMR

Mora Municipal Airport

Mora, Minnesota, USA
METAR KJMR 211255Z AUTO 00000KT 10SM CLR M22/M24 A3049 RMK AO2
Observed Flight Rules
Feb-21 @ 12:55 UTC (13 minutes ago) Visual Flight Rules
Wind Visibility Clouds
Calm 10 miles
  • Clear skies
Temperatures Readings
Current -22°C / -8°F
Dewpoint -24°C / -11°F
Humidity 84%
Altimeter 30.49" Hg
Pressure 1033 hPa
Elevation 309
METAR KJMR 211255Z AUTO 00000KT 10SM CLR M22/M24 A3049 RMK AO2
Observed Flight Rules
Feb-21 @ 12:55 UTC
(13 minutes ago)
VFR
Wind Visibility
Calm 10 miles
Clouds
  • Clear skies
Temperature Dewpoint
-22°C / -8°F -24°C / -11°F
Humidity Altimeter Pressure
84% 30.49" Hg 1033 hPa